createdAt,value
2017-09-21T00:00:03.651Z,85.66
2017-09-21T00:00:29.776Z,85.94
2017-09-21T00:00:55.898Z,85.85
2017-09-21T00:01:22.034Z,85.66
2017-09-21T00:01:48.163Z,85.57
2017-09-21T00:02:14.278Z,85.66
2017-09-21T00:02:40.399Z,85.57
2017-09-21T00:03:06.530Z,85.66
2017-09-21T00:03:32.644Z,85.57
2017-09-21T00:03:58.771Z,86.43
2017-09-21T00:04:24.894Z,85.94
2017-09-21T00:04:51.014Z,85.94
2017-09-21T00:05:17.142Z,85.57
2017-09-21T00:05:43.259Z,86.33
2017-09-21T00:06:09.384Z,85.75
2017-09-21T00:06:35.530Z,85.57
2017-09-21T00:07:01.647Z,85.75
2017-09-21T00:07:27.768Z,85.94
2017-09-21T00:07:53.888Z,85.94
2017-09-21T00:08:20.012Z,85.75
2017-09-21T00:08:49.182Z,85.94
2017-09-21T00:09:15.322Z,86.33
2017-09-21T00:09:41.469Z,86.23
2017-09-21T00:10:07.611Z,86.61
2017-09-21T00:10:33.763Z,86.61
2017-09-21T00:10:59.913Z,86.61
2017-09-21T00:11:26.095Z,86.71
2017-09-21T00:11:52.205Z,86.61
2017-09-21T00:12:18.350Z,86.71
2017-09-21T00:12:44.494Z,86.52
2017-09-21T00:13:10.636Z,86.52
2017-09-21T00:13:36.790Z,86.33
2017-09-21T00:14:02.959Z,86.43
2017-09-21T00:14:29.102Z,86.52
2017-09-21T00:14:55.248Z,86.33
2017-09-21T00:15:21.388Z,86.33
2017-09-21T00:15:47.532Z,86.04
2017-09-21T00:16:13.677Z,86.14
2017-09-21T00:16:39.827Z,86.23
2017-09-21T00:17:05.961Z,86.04
2017-09-21T00:17:32.114Z,86.14
2017-09-21T00:17:58.251Z,86.33
2017-09-21T00:18:24.399Z,86.23
2017-09-21T00:18:50.542Z,86.33
2017-09-21T00:19:16.686Z,86.23
2017-09-21T00:19:42.832Z,86.23
2017-09-21T00:20:08.977Z,86.23
2017-09-21T00:20:35.120Z,85.94
2017-09-21T00:21:01.272Z,86.33
2017-09-21T00:21:27.414Z,86.33
2017-09-21T00:21:53.557Z,86.23
2017-09-21T00:22:19.710Z,86.14
2017-09-21T00:22:45.861Z,86.04
2017-09-21T00:23:12.002Z,86.52
2017-09-21T00:23:38.146Z,86.86
2017-09-21T00:24:04.298Z,86.47
2017-09-21T00:24:30.439Z,86.86
2017-09-21T00:24:56.586Z,86.67
2017-09-21T00:25:22.762Z,86.76
2017-09-21T00:25:48.904Z,87.15
2017-09-21T00:26:15.052Z,87.05
2017-09-21T00:26:41.196Z,87.43
2017-09-21T00:27:07.342Z,87.43
2017-09-21T00:27:33.491Z,87.34
2017-09-21T00:27:59.628Z,86.96
2017-09-21T00:28:25.775Z,87.05
2017-09-21T00:28:51.928Z,87.15
2017-09-21T00:29:18.072Z,87.24
2017-09-21T00:29:44.215Z,86.67
2017-09-21T00:30:10.361Z,86.86
2017-09-21T00:30:36.505Z,86.67
2017-09-21T00:31:02.643Z,86.67
2017-09-21T00:31:28.802Z,86.76
2017-09-21T00:31:54.943Z,86.47
2017-09-21T00:32:21.087Z,86.57
2017-09-21T00:32:47.227Z,86.57
2017-09-21T00:33:13.380Z,86.67
2017-09-21T00:33:39.520Z,86.67
2017-09-21T00:34:05.666Z,86.67
2017-09-21T00:34:31.817Z,86.67
2017-09-21T00:34:57.964Z,86.47
2017-09-21T00:35:24.102Z,86.57
2017-09-21T00:35:50.242Z,86.47
2017-09-21T00:36:16.417Z,86.76
2017-09-21T00:36:42.537Z,86.86
2017-09-21T00:37:08.686Z,87.05
2017-09-21T00:37:34.829Z,86.57
2017-09-21T00:38:00.981Z,86.76
2017-09-21T00:38:27.148Z,86.47
2017-09-21T00:38:53.266Z,87.05
2017-09-21T00:39:19.416Z,86.86
2017-09-21T00:39:45.557Z,87.05
2017-09-21T00:40:11.707Z,87.24
2017-09-21T00:40:37.845Z,87.15
2017-09-21T00:41:03.989Z,87.43
2017-09-21T00:41:30.140Z,87.15
2017-09-21T00:41:56.293Z,87.62
2017-09-21T00:42:22.428Z,87.53
2017-09-21T00:42:48.570Z,87.05
2017-09-21T00:43:14.747Z,87.43
2017-09-21T00:43:40.888Z,86.96
2017-09-21T00:44:07.065Z,87.24
2017-09-21T00:44:33.204Z,87.34
2017-09-21T00:44:59.355Z,87.34
2017-09-21T00:45:25.530Z,87.62
2017-09-21T00:45:51.676Z,87.72
2017-09-21T00:46:17.823Z,87.72
2017-09-21T00:46:43.969Z,87.24
2017-09-21T00:47:10.108Z,87.43
2017-09-21T00:47:36.261Z,87.53
2017-09-21T00:48:02.404Z,87.34
2017-09-21T00:48:28.554Z,87.05
2017-09-21T00:48:54.723Z,86.96
2017-09-21T00:49:20.870Z,86.67
2017-09-21T00:49:47.012Z,86.57
2017-09-21T00:50:13.159Z,87.05
2017-09-21T00:50:39.305Z,87.15
2017-09-21T00:51:05.445Z,87.24
2017-09-21T00:51:31.594Z,87.05
2017-09-21T00:51:57.745Z,86.96
2017-09-21T00:52:23.883Z,87.05
2017-09-21T00:52:50.031Z,87.34
2017-09-21T00:53:16.176Z,87.34
2017-09-21T00:53:42.322Z,87.15
2017-09-21T00:54:08.498Z,87.05
2017-09-21T00:54:34.637Z,87.05
2017-09-21T00:55:00.776Z,86.76
2017-09-21T00:55:26.919Z,86.57
2017-09-21T00:55:53.071Z,86.86
2017-09-21T00:56:19.220Z,87.24
2017-09-21T00:56:45.361Z,86.96
2017-09-21T00:57:11.505Z,87.24
2017-09-21T00:57:37.644Z,87.43
2017-09-21T00:58:03.789Z,87.34
2017-09-21T00:58:29.936Z,87.24
2017-09-21T00:58:56.077Z,87.34
2017-09-21T00:59:22.213Z,87.15
2017-09-21T00:59:48.365Z,87.05
2017-09-21T01:00:14.508Z,87.34
2017-09-21T01:00:40.655Z,87.24
2017-09-21T01:01:06.798Z,87.15
2017-09-21T01:01:32.945Z,86.96
2017-09-21T01:01:59.100Z,86.47
2017-09-21T01:02:25.240Z,86.67
2017-09-21T01:02:51.380Z,86.76
2017-09-21T01:03:17.525Z,86.96
2017-09-21T01:03:43.674Z,87.15
2017-09-21T01:04:09.819Z,87.15
2017-09-21T01:04:35.960Z,87.34
2017-09-21T01:05:02.110Z,87.15
2017-09-21T01:05:28.250Z,87.34
2017-09-21T01:05:54.396Z,87.15
2017-09-21T01:06:20.544Z,87.05
2017-09-21T01:06:46.693Z,87.15
2017-09-21T01:07:12.873Z,87.15
2017-09-21T01:07:39.015Z,87.01
2017-09-21T01:08:05.162Z,87.24
2017-09-21T01:08:31.301Z,87.01
2017-09-21T01:08:57.468Z,87.05
2017-09-21T01:09:23.612Z,87.2
2017-09-21T01:09:49.760Z,87.1
2017-09-21T01:10:15.900Z,87.24
2017-09-21T01:10:42.043Z,87.24
2017-09-21T01:11:08.187Z,87.68
2017-09-21T01:11:34.329Z,87.72
2017-09-21T01:12:00.482Z,87.68
2017-09-21T01:12:26.620Z,87.29
2017-09-21T01:12:52.771Z,87.96
2017-09-21T01:13:18.918Z,87.96
2017-09-21T01:13:45.058Z,88.15
2017-09-21T01:14:11.209Z,88.73
2017-09-21T01:14:37.356Z,88.63
2017-09-21T01:15:03.497Z,88.25
2017-09-21T01:15:29.667Z,88.34
2017-09-21T01:15:55.811Z,88.63
2017-09-21T01:16:21.961Z,88.54
2017-09-21T01:17:00.844Z,88.82
2017-09-21T01:17:27.011Z,88.54
2017-09-21T01:17:53.151Z,88.44
2017-09-21T01:18:19.300Z,88.63
2017-09-21T01:18:45.469Z,88.63
2017-09-21T01:19:11.620Z,88.73
2017-09-21T01:19:37.768Z,88.34
2017-09-21T01:20:03.908Z,88.25
2017-09-21T01:20:30.061Z,88.34
2017-09-21T01:20:56.205Z,88.44
2017-09-21T01:21:22.357Z,88.34
2017-09-21T01:21:48.519Z,88.25
2017-09-21T01:22:14.671Z,88.44
2017-09-21T01:22:40.809Z,88.44
2017-09-21T01:23:06.975Z,88.44
2017-09-21T01:23:33.126Z,88.44
2017-09-21T01:23:59.265Z,88.44
2017-09-21T01:24:25.413Z,88.34
2017-09-21T01:24:51.561Z,88.44
2017-09-21T01:25:17.709Z,88.73
2017-09-21T01:25:43.849Z,88.44
2017-09-21T01:26:09.997Z,88.82
2017-09-21T01:26:36.143Z,89.3
2017-09-21T01:27:02.291Z,89.01
2017-09-21T01:27:28.431Z,89.01
2017-09-21T01:27:54.575Z,88.82
2017-09-21T01:28:20.721Z,88.54
2017-09-21T01:28:46.860Z,88.92
2017-09-21T01:29:13.032Z,88.82
2017-09-21T01:29:39.175Z,88.25
2017-09-21T01:30:25.946Z,88.34
2017-09-21T01:30:52.112Z,88.63
2017-09-21T01:31:18.268Z,88.06
2017-09-21T01:31:44.405Z,88.15
2017-09-21T01:32:10.544Z,88.15
2017-09-21T01:32:36.698Z,88.06
2017-09-21T01:33:02.847Z,88.15
2017-09-21T01:33:28.990Z,87.91
2017-09-21T01:33:55.131Z,88.01
2017-09-21T01:34:21.273Z,87.1
2017-09-21T01:34:47.416Z,87.39
2017-09-21T01:35:13.566Z,87.53
2017-09-21T01:35:39.748Z,87.72
2017-09-21T01:36:05.854Z,87.24
2017-09-21T01:36:32.001Z,87.24
2017-09-21T01:36:58.173Z,87.39
2017-09-21T01:37:24.291Z,87.34
2017-09-21T01:37:50.440Z,87.05
2017-09-21T01:38:16.606Z,86.57
2017-09-21T01:38:42.758Z,87.05
2017-09-21T01:39:08.901Z,87.15
2017-09-21T01:39:35.041Z,87.05
2017-09-21T01:40:01.193Z,86.57
2017-09-21T01:41:05.154Z,86.57
2017-09-21T01:41:31.293Z,86.86
2017-09-21T01:41:57.445Z,86.63
2017-09-21T01:42:23.609Z,86.47
2017-09-21T01:42:49.780Z,86.57
2017-09-21T01:43:15.926Z,86.24
2017-09-21T01:43:42.077Z,86.63
2017-09-21T01:44:08.222Z,87.05
2017-09-21T01:44:34.366Z,87.2
2017-09-21T01:45:00.516Z,87.15
2017-09-21T01:45:26.661Z,87.15
2017-09-21T01:45:52.796Z,87.01
2017-09-21T01:46:18.945Z,87.1
2017-09-21T01:46:45.091Z,86.82
2017-09-21T01:47:11.239Z,87.29
2017-09-21T01:47:37.379Z,87.29
2017-09-21T01:48:03.525Z,86.91
2017-09-21T01:48:29.670Z,87.1
2017-09-21T01:48:55.845Z,87.29
2017-09-21T01:49:21.995Z,87.2
2017-09-21T01:49:48.141Z,87.29
2017-09-21T01:50:14.288Z,87.2
2017-09-21T01:50:40.427Z,87.48
2017-09-21T01:51:06.573Z,87.2
2017-09-21T01:51:32.733Z,87.01
2017-09-21T01:51:58.881Z,87.68
2017-09-21T01:52:25.018Z,87.68
2017-09-21T01:52:51.170Z,87.58
2017-09-21T01:53:17.319Z,87.2
2017-09-21T01:53:43.460Z,87.39
2017-09-21T01:54:09.607Z,87.2
2017-09-21T01:54:35.747Z,87.48
2017-09-21T01:55:01.893Z,87.43
2017-09-21T01:55:28.043Z,87.34
2017-09-21T01:55:54.192Z,87.24
2017-09-21T01:56:20.329Z,87.2
2017-09-21T01:56:46.481Z,87.1
2017-09-21T01:57:12.623Z,87.15
2017-09-21T01:57:38.794Z,87.2
2017-09-21T01:58:04.941Z,87.1
2017-09-21T01:58:31.108Z,87.01
2017-09-21T01:58:57.254Z,87.2
2017-09-21T01:59:23.405Z,87.39
2017-09-21T01:59:49.550Z,87.29
2017-09-21T02:00:15.693Z,87.2
2017-09-21T02:00:41.836Z,87.39
2017-09-21T02:01:07.975Z,87.2
2017-09-21T02:01:34.128Z,87.29
2017-09-21T02:02:00.273Z,87.01
2017-09-21T02:02:26.414Z,87.39
2017-09-21T02:02:52.554Z,87.39
2017-09-21T02:03:18.703Z,86.91
2017-09-21T02:03:44.886Z,87.58
2017-09-21T02:04:11.032Z,87.68
2017-09-21T02:04:37.177Z,87.68
2017-09-21T02:05:03.320Z,87.68
2017-09-21T02:05:29.458Z,87.39
2017-09-21T02:05:55.611Z,87.68
2017-09-21T02:06:21.757Z,87.01
2017-09-21T02:06:47.901Z,87.29
2017-09-21T02:07:14.044Z,87.29
2017-09-21T02:07:40.190Z,86.82
2017-09-21T02:08:06.335Z,87.29
2017-09-21T02:08:32.477Z,87.2
2017-09-21T02:08:58.626Z,87.29
2017-09-21T02:09:24.802Z,86.91
2017-09-21T02:09:50.945Z,87.1
2017-09-21T02:10:17.097Z,87.2
2017-09-21T02:10:43.230Z,87.39
2017-09-21T02:11:09.379Z,87.1
2017-09-21T02:11:35.521Z,87.1
2017-09-21T02:12:01.665Z,87.39
2017-09-21T02:12:27.812Z,87.48
2017-09-21T02:12:53.962Z,87.48
2017-09-21T02:13:20.102Z,87.58
2017-09-21T02:13:46.251Z,87.68
2017-09-21T02:14:12.401Z,87.58
2017-09-21T02:14:38.542Z,87.39
2017-09-21T02:15:04.712Z,87.39
2017-09-21T02:15:30.834Z,87.2
2017-09-21T02:15:56.984Z,87.29
2017-09-21T02:16:23.125Z,87.39
2017-09-21T02:16:49.267Z,87.2
2017-09-21T02:17:15.418Z,87.58
2017-09-21T02:17:41.566Z,87.39
2017-09-21T02:18:07.707Z,87.72
2017-09-21T02:18:33.857Z,86.96
2017-09-21T02:18:59.999Z,87.68
2017-09-21T02:19:26.147Z,87.68
2017-09-21T02:19:52.288Z,87.2
2017-09-21T02:20:18.433Z,87.39
2017-09-21T02:20:44.581Z,87.34
2017-09-21T02:21:10.719Z,87.24
2017-09-21T02:21:36.865Z,87.39
2017-09-21T02:22:03.038Z,87.62
2017-09-21T02:22:29.180Z,87.15
2017-09-21T02:22:55.328Z,87.34
2017-09-21T02:23:21.467Z,87.15
2017-09-21T02:23:47.613Z,87.43
2017-09-21T02:24:13.760Z,87.34
2017-09-21T02:24:39.901Z,87.53
2017-09-21T02:25:06.051Z,87.24
2017-09-21T02:25:32.201Z,87.34
2017-09-21T02:25:58.337Z,86.57
2017-09-21T02:26:24.485Z,86.63
2017-09-21T02:26:50.628Z,87.24
2017-09-21T02:27:16.771Z,87.05
2017-09-21T02:27:42.922Z,86.86
2017-09-21T02:28:09.062Z,87.15
2017-09-21T02:28:35.211Z,86.96
2017-09-21T02:29:01.362Z,86.86
2017-09-21T02:29:27.536Z,86.67
2017-09-21T02:29:53.683Z,86.67
2017-09-21T02:30:19.826Z,86.67
2017-09-21T02:30:45.965Z,86.86
2017-09-21T02:31:12.109Z,87.05
2017-09-21T02:31:38.259Z,86.86
2017-09-21T02:32:04.433Z,86.96
2017-09-21T02:32:30.577Z,86.57
2017-09-21T02:32:56.748Z,87.05
2017-09-21T02:33:22.891Z,86.96
2017-09-21T02:33:49.038Z,86.57
2017-09-21T02:34:15.184Z,86.57
2017-09-21T02:34:41.330Z,86.86
2017-09-21T02:35:07.482Z,86.67
2017-09-21T02:35:33.626Z,86.67
2017-09-21T02:35:59.768Z,86.86
2017-09-21T02:36:25.905Z,86.76
2017-09-21T02:36:52.082Z,86.86
2017-09-21T02:37:18.220Z,86.76
2017-09-21T02:37:44.363Z,86.67
2017-09-21T02:38:10.508Z,86.76
2017-09-21T02:38:36.652Z,87.05
2017-09-21T02:39:02.800Z,87.05
2017-09-21T02:39:28.942Z,86.86
2017-09-21T02:39:55.120Z,86.72
2017-09-21T02:40:21.228Z,86.57
2017-09-21T02:40:47.381Z,86.76
2017-09-21T02:41:13.529Z,86.82
2017-09-21T02:41:39.669Z,87.01
2017-09-21T02:42:05.820Z,87.29
2017-09-21T02:42:31.960Z,87.15
2017-09-21T02:42:58.102Z,87.15
2017-09-21T02:43:24.253Z,87.29
2017-09-21T02:43:50.400Z,87.58
2017-09-21T02:44:16.544Z,87.2
2017-09-21T02:44:42.692Z,87.29
2017-09-21T02:45:08.837Z,87.2
2017-09-21T02:45:34.984Z,87.05
2017-09-21T02:46:01.126Z,87.05
2017-09-21T02:46:27.291Z,87.58
2017-09-21T02:46:53.440Z,87.1
2017-09-21T02:47:19.589Z,87.29
2017-09-21T02:47:45.727Z,87.68
2017-09-21T02:48:11.879Z,87.29
2017-09-21T02:48:38.018Z,87.68
2017-09-21T02:49:04.171Z,87.48
2017-09-21T02:49:30.316Z,87.1
2017-09-21T02:49:56.456Z,87.2
2017-09-21T02:50:22.619Z,87.2
2017-09-21T02:50:48.766Z,87.2
2017-09-21T02:51:14.909Z,87.39
2017-09-21T02:51:41.058Z,87.29
2017-09-21T02:52:07.200Z,87.48
2017-09-21T02:52:33.341Z,87.58
2017-09-21T02:52:59.489Z,87.48
2017-09-21T02:53:25.631Z,87.39
2017-09-21T02:53:51.783Z,87.2
2017-09-21T02:54:17.929Z,87.29
2017-09-21T02:54:44.074Z,87.2
2017-09-21T02:55:10.222Z,87.2
2017-09-21T02:55:36.368Z,87.29
2017-09-21T02:56:02.504Z,87.39
2017-09-21T02:56:28.656Z,87.01
2017-09-21T02:56:54.797Z,87.2
2017-09-21T02:57:20.944Z,87.01
2017-09-21T02:57:47.120Z,87.2
2017-09-21T02:58:13.259Z,87.39
2017-09-21T02:58:39.407Z,87.1
2017-09-21T02:59:05.549Z,87.24
2017-09-21T02:59:31.696Z,87.24
2017-09-21T02:59:57.865Z,86.72
2017-09-21T03:00:24.009Z,86.53
2017-09-21T03:00:50.159Z,87.01
2017-09-21T03:01:16.301Z,86.91
2017-09-21T03:01:42.444Z,87.1
2017-09-21T03:02:08.615Z,87.1
2017-09-21T03:02:34.759Z,87.2
2017-09-21T03:03:00.907Z,86.91
2017-09-21T03:03:27.069Z,87.1
2017-09-21T03:03:53.220Z,87.2
2017-09-21T03:04:19.363Z,87.2
2017-09-21T03:04:45.506Z,87.1
2017-09-21T03:05:11.657Z,87.68
2017-09-21T03:05:37.796Z,87.48
2017-09-21T03:06:03.942Z,87.29
2017-09-21T03:06:30.093Z,87.87
2017-09-21T03:06:56.236Z,87.68
2017-09-21T03:07:22.379Z,87.96
2017-09-21T03:07:48.531Z,87.87
2017-09-21T03:08:14.678Z,87.87
2017-09-21T03:08:40.818Z,87.87
2017-09-21T03:09:06.969Z,88.63
2017-09-21T03:09:33.111Z,87.96
2017-09-21T03:09:59.257Z,88.82
2017-09-21T03:10:25.407Z,88.44
2017-09-21T03:10:51.555Z,88.25
2017-09-21T03:11:17.719Z,88.73
2017-09-21T03:11:43.869Z,88.73
2017-09-21T03:12:10.008Z,88.73
2017-09-21T03:12:36.154Z,88.34
2017-09-21T03:13:02.304Z,88.73
2017-09-21T03:13:28.442Z,88.44
2017-09-21T03:13:54.591Z,88.25
2017-09-21T03:14:20.741Z,88.15
2017-09-21T03:14:46.877Z,88.73
2017-09-21T03:15:13.027Z,88.82
2017-09-21T03:15:39.170Z,89.01
2017-09-21T03:16:05.325Z,88.63
2017-09-21T03:16:31.489Z,88.44
2017-09-21T03:16:57.633Z,88.92
2017-09-21T03:17:23.837Z,88.63
2017-09-21T03:17:49.986Z,88.63
2017-09-21T03:18:16.125Z,88.92
2017-09-21T03:18:42.265Z,89.01
2017-09-21T03:19:08.419Z,89.11
2017-09-21T03:19:34.559Z,89.2
2017-09-21T03:20:00.728Z,89.01
2017-09-21T03:20:26.868Z,89.49
2017-09-21T03:20:53.021Z,89.11
2017-09-21T03:21:19.159Z,88.82
2017-09-21T03:21:45.309Z,89.2
2017-09-21T03:22:11.461Z,88.63
2017-09-21T03:22:37.604Z,88.82
2017-09-21T03:23:03.749Z,88.59
2017-09-21T03:23:29.889Z,88.97
2017-09-21T03:23:56.037Z,89.16
2017-09-21T03:24:22.182Z,89.16
2017-09-21T03:24:48.325Z,89.54
2017-09-21T03:25:14.470Z,89.25
2017-09-21T03:25:40.625Z,89.25
2017-09-21T03:26:06.762Z,89.35
2017-09-21T03:26:32.919Z,89.64
2017-09-21T03:26:59.078Z,89.25
2017-09-21T03:27:25.227Z,89.45
2017-09-21T03:27:51.362Z,89.25
2017-09-21T03:28:17.517Z,89.16
2017-09-21T03:28:43.655Z,89.35
2017-09-21T03:29:09.806Z,89.16
2017-09-21T03:29:35.956Z,89.25
2017-09-21T03:30:02.099Z,89.45
2017-09-21T03:30:28.242Z,89.16
2017-09-21T03:30:54.386Z,89.45
2017-09-21T03:31:20.525Z,89.35
2017-09-21T03:31:46.721Z,89.35
2017-09-21T03:32:12.874Z,89.35
2017-09-21T03:32:39.017Z,89.16
2017-09-21T03:33:05.165Z,89.68
2017-09-21T03:33:31.304Z,89.59
2017-09-21T03:33:57.449Z,89.39
2017-09-21T03:34:23.596Z,89.3
2017-09-21T03:34:49.746Z,88.73
2017-09-21T03:35:15.897Z,88.82
2017-09-21T03:35:42.064Z,88.63
2017-09-21T03:36:08.206Z,88.73
2017-09-21T03:36:34.358Z,88.63
2017-09-21T03:37:00.507Z,88.63
2017-09-21T03:37:26.645Z,88.73
2017-09-21T03:37:52.794Z,88.63
2017-09-21T03:38:18.938Z,88.63
2017-09-21T03:38:45.082Z,88.44
2017-09-21T03:39:11.224Z,88.63
2017-09-21T03:39:37.367Z,88.63
2017-09-21T03:40:03.520Z,88.34
2017-09-21T03:40:29.662Z,88.73
2017-09-21T03:40:55.837Z,88.63
2017-09-21T03:41:21.979Z,88.82
2017-09-21T03:41:48.127Z,89.01
2017-09-21T03:42:14.277Z,88.73
2017-09-21T03:42:40.415Z,88.82
2017-09-21T03:43:06.560Z,88.73
2017-09-21T03:43:32.711Z,88.54
2017-09-21T03:43:58.901Z,88.82
2017-09-21T03:44:25.048Z,89.3
2017-09-21T03:44:51.191Z,88.54
2017-09-21T03:45:17.335Z,88.54
2017-09-21T03:45:43.482Z,88.54
2017-09-21T03:46:09.626Z,88.82
2017-09-21T03:46:35.774Z,89.49
2017-09-21T03:47:01.911Z,88.54
2017-09-21T03:47:28.054Z,88.82
2017-09-21T03:47:54.197Z,88.92
2017-09-21T03:48:20.349Z,89.01
2017-09-21T03:48:46.497Z,89.01
2017-09-21T03:49:12.640Z,88.73
2017-09-21T03:49:38.811Z,88.82
2017-09-21T03:50:04.949Z,88.82
2017-09-21T03:50:31.097Z,88.73
2017-09-21T03:50:57.239Z,89.11
2017-09-21T03:51:23.392Z,88.82
2017-09-21T03:51:49.529Z,88.82
2017-09-21T03:52:15.676Z,88.73
2017-09-21T03:52:41.825Z,89.11
2017-09-21T03:53:07.999Z,89.01
2017-09-21T03:53:34.149Z,88.92
2017-09-21T03:54:00.290Z,89.11
2017-09-21T03:54:26.427Z,88.73
2017-09-21T03:54:52.571Z,89.11
2017-09-21T03:55:18.752Z,88.44
2017-09-21T03:55:44.893Z,89.11
2017-09-21T03:56:11.060Z,89.01
2017-09-21T03:56:37.242Z,89.01
2017-09-21T03:57:03.352Z,89.59
2017-09-21T03:57:29.496Z,88.63
2017-09-21T03:57:55.647Z,88.34
2017-09-21T03:58:21.812Z,88.92
2017-09-21T03:58:47.950Z,89.3
2017-09-21T03:59:14.123Z,88.73
2017-09-21T03:59:40.273Z,88.73
2017-09-21T04:00:06.410Z,88.25
2017-09-21T04:00:32.551Z,88.06
2017-09-21T04:00:58.703Z,88.73
2017-09-21T04:01:24.872Z,87.68
2017-09-21T04:01:51.015Z,88.63
2017-09-21T04:02:17.162Z,87.87
2017-09-21T04:02:43.306Z,88.25
2017-09-21T04:03:09.447Z,88.25
2017-09-21T04:03:35.598Z,88.44
2017-09-21T04:04:01.740Z,88.34
2017-09-21T04:04:27.887Z,88.63
2017-09-21T04:04:54.032Z,88.63
2017-09-21T04:05:20.203Z,88.25
2017-09-21T04:05:46.352Z,87.87
2017-09-21T04:06:12.502Z,88.15
2017-09-21T04:06:38.651Z,88.25
2017-09-21T04:07:04.802Z,88.34
2017-09-21T04:07:30.942Z,88.34
2017-09-21T04:07:57.085Z,88.54
2017-09-21T04:08:23.238Z,88.63
2017-09-21T04:08:49.378Z,88.54
2017-09-21T04:09:15.521Z,88.34
2017-09-21T04:09:41.671Z,88.44
2017-09-21T04:10:07.816Z,88.44
2017-09-21T04:10:33.963Z,88.25
2017-09-21T04:11:00.109Z,88.44
2017-09-21T04:11:26.252Z,88.63
2017-09-21T04:11:52.394Z,88.34
2017-09-21T04:12:18.543Z,88.63
2017-09-21T04:12:44.686Z,89.11
2017-09-21T04:13:10.829Z,89.11
2017-09-21T04:13:36.983Z,89.3
2017-09-21T04:14:03.123Z,88.92
2017-09-21T04:14:29.267Z,89.11
2017-09-21T04:14:55.426Z,89.39
2017-09-21T04:15:21.568Z,88.73
2017-09-21T04:15:47.717Z,88.92
2017-09-21T04:16:13.861Z,88.73
2017-09-21T04:16:40.013Z,88.54
2017-09-21T04:17:06.158Z,89.11
2017-09-21T04:17:32.305Z,88.82
2017-09-21T04:17:58.443Z,89.11
2017-09-21T04:18:24.619Z,89.11
2017-09-21T04:18:50.768Z,89.01
2017-09-21T04:19:16.906Z,88.44
2017-09-21T04:19:43.048Z,88.73
2017-09-21T04:20:09.198Z,88.25
2017-09-21T04:20:35.343Z,88.82
2017-09-21T04:21:01.485Z,88.15
2017-09-21T04:21:27.633Z,88.15
2017-09-21T04:21:53.800Z,88.54
2017-09-21T04:22:19.948Z,88.44
2017-09-21T04:22:46.148Z,88.44
2017-09-21T04:23:12.282Z,88.63
2017-09-21T04:23:38.433Z,88.63
2017-09-21T04:24:04.570Z,88.54
2017-09-21T04:24:30.722Z,88.44
2017-09-21T04:24:56.867Z,88.73
2017-09-21T04:25:23.012Z,88.63
2017-09-21T04:25:49.156Z,88.54
2017-09-21T04:26:15.298Z,88.82
2017-09-21T04:26:41.443Z,88.25
2017-09-21T04:27:07.591Z,88.54
2017-09-21T04:27:33.739Z,88.54
2017-09-21T04:27:59.880Z,88.34
2017-09-21T04:28:26.025Z,88.44
2017-09-21T04:28:52.165Z,88.06
2017-09-21T04:29:18.311Z,88.06
2017-09-21T04:29:44.457Z,88.44
2017-09-21T04:30:10.629Z,88.54
2017-09-21T04:30:36.772Z,88.44
2017-09-21T04:31:02.927Z,88.34
2017-09-21T04:31:29.065Z,88.73
2017-09-21T04:31:55.222Z,88.63
2017-09-21T04:32:21.354Z,88.63
2017-09-21T04:32:47.537Z,88.82
2017-09-21T04:33:13.678Z,89.3
2017-09-21T04:33:39.825Z,88.82
2017-09-21T04:34:05.966Z,88.54
2017-09-21T04:34:32.134Z,88.63
2017-09-21T04:34:58.287Z,88.63
2017-09-21T04:35:24.429Z,88.15
2017-09-21T04:35:50.576Z,88.44
2017-09-21T04:36:16.714Z,88.44
2017-09-21T04:36:42.891Z,88.63
2017-09-21T04:37:09.035Z,88.73
2017-09-21T04:37:35.179Z,88.73
2017-09-21T04:38:01.326Z,88.73
2017-09-21T04:38:27.461Z,88.25
2017-09-21T04:38:53.612Z,88.15
2017-09-21T04:39:19.750Z,88.44
2017-09-21T04:39:45.901Z,88.25
2017-09-21T04:40:12.049Z,88.48
2017-09-21T04:40:38.185Z,88.15
2017-09-21T04:41:04.338Z,88.06
2017-09-21T04:41:30.539Z,88.01
2017-09-21T04:41:56.678Z,87.91
2017-09-21T04:42:22.822Z,88.01
2017-09-21T04:42:48.974Z,87.91
2017-09-21T04:43:15.115Z,87.53
2017-09-21T04:43:41.267Z,87.72
2017-09-21T04:44:07.406Z,87.05
2017-09-21T04:44:33.559Z,87.24
2017-09-21T04:44:59.701Z,87.34
2017-09-21T04:45:25.843Z,87.43
2017-09-21T04:45:51.993Z,87.43
2017-09-21T04:46:18.130Z,87.39
2017-09-21T04:46:44.279Z,87.15
2017-09-21T04:47:10.421Z,87.58
2017-09-21T04:47:36.567Z,88.15
2017-09-21T04:48:02.714Z,87.91
2017-09-21T04:48:28.866Z,87.87
2017-09-21T04:48:55.003Z,88.1
2017-09-21T04:49:21.150Z,87.91
2017-09-21T04:49:47.297Z,87.87
2017-09-21T04:50:13.440Z,87.58
2017-09-21T04:50:39.590Z,87.87
2017-09-21T04:51:05.740Z,87.87
2017-09-21T04:51:31.885Z,87.87
2017-09-21T04:51:58.056Z,87.82
2017-09-21T04:52:24.203Z,87.82
2017-09-21T04:52:50.344Z,88.1
2017-09-21T04:53:16.498Z,87.82
2017-09-21T04:53:42.642Z,87.91
2017-09-21T04:54:08.788Z,87.34
2017-09-21T04:54:34.936Z,87.72
2017-09-21T04:55:01.081Z,87.43
2017-09-21T04:55:27.241Z,87.24
2017-09-21T04:55:53.383Z,87.05
2017-09-21T04:56:19.532Z,87.43
2017-09-21T04:56:45.684Z,87.72
2017-09-21T04:57:11.853Z,87.24
2017-09-21T04:57:38.000Z,87.77
2017-09-21T04:58:04.143Z,88.06
2017-09-21T04:58:30.291Z,87.39
2017-09-21T04:58:56.466Z,87.43
2017-09-21T04:59:22.609Z,87.82
2017-09-21T04:59:48.755Z,87.34
2017-09-21T05:00:14.907Z,87.62
2017-09-21T05:00:41.068Z,87.34
2017-09-21T05:01:07.215Z,87.34
2017-09-21T05:01:33.367Z,87.24
2017-09-21T05:01:59.531Z,87.72
2017-09-21T05:02:25.677Z,87.72
2017-09-21T05:02:51.819Z,87.62
2017-09-21T05:03:17.961Z,87.24
2017-09-21T05:03:44.114Z,87.34
2017-09-21T05:04:10.253Z,87.43
2017-09-21T05:04:36.401Z,87.05
2017-09-21T05:05:02.556Z,87.24
2017-09-21T05:05:28.715Z,86.86
2017-09-21T05:05:54.864Z,86.47
2017-09-21T05:06:21.007Z,86.96
2017-09-21T05:06:47.153Z,86.47
2017-09-21T05:07:13.299Z,86.67
2017-09-21T05:07:39.445Z,87.15
2017-09-21T05:08:05.592Z,87.29
2017-09-21T05:08:31.766Z,86.96
2017-09-21T05:08:57.907Z,87.05
2017-09-21T05:09:24.057Z,87.05
2017-09-21T05:09:50.195Z,86.96
2017-09-21T05:10:16.347Z,87.15
2017-09-21T05:10:42.485Z,87.15
2017-09-21T05:11:08.632Z,87.34
2017-09-21T05:11:34.773Z,87.24
2017-09-21T05:12:00.918Z,87.15
2017-09-21T05:12:27.066Z,87.24
2017-09-21T05:12:53.216Z,87.05
2017-09-21T05:13:19.352Z,87.15
2017-09-21T05:13:45.497Z,86.86
2017-09-21T05:14:11.651Z,86.57
2017-09-21T05:14:37.793Z,87.15
2017-09-21T05:15:03.931Z,86.67
2017-09-21T05:15:30.078Z,86.57
2017-09-21T05:15:56.224Z,86.96
2017-09-21T05:16:22.365Z,86.76
2017-09-21T05:16:48.515Z,86.67
2017-09-21T05:17:14.663Z,86.76
2017-09-21T05:17:40.808Z,86.47
2017-09-21T05:18:06.957Z,86.67
2017-09-21T05:18:33.121Z,86.67
2017-09-21T05:18:59.266Z,86.86
2017-09-21T05:19:25.427Z,86.67
2017-09-21T05:19:51.555Z,86.76
2017-09-21T05:20:17.726Z,86.67
2017-09-21T05:20:43.864Z,86.47
2017-09-21T05:21:10.017Z,86.38
2017-09-21T05:21:36.190Z,86.67
2017-09-21T05:22:02.336Z,86.67
2017-09-21T05:22:28.487Z,86.57
2017-09-21T05:22:54.633Z,86.57
2017-09-21T05:23:20.771Z,86.57
2017-09-21T05:23:46.922Z,86.67
2017-09-21T05:24:13.058Z,86.67
2017-09-21T05:24:39.211Z,86.67
2017-09-21T05:25:05.355Z,86.47
2017-09-21T05:25:31.499Z,86.67
2017-09-21T05:25:57.647Z,86.86
2017-09-21T05:26:23.793Z,87.15
2017-09-21T05:26:49.932Z,86.76
2017-09-21T05:27:16.087Z,86.67
2017-09-21T05:27:42.229Z,86.53
2017-09-21T05:28:08.380Z,86.76
2017-09-21T05:28:34.522Z,86.91
2017-09-21T05:29:00.667Z,86.67
2017-09-21T05:29:26.812Z,86.76
2017-09-21T05:29:52.957Z,86.67
2017-09-21T05:30:19.111Z,86.76
2017-09-21T05:30:45.250Z,86.86
2017-09-21T05:31:11.395Z,86.76
2017-09-21T05:31:37.545Z,86.72
2017-09-21T05:32:03.693Z,86.76
2017-09-21T05:32:29.836Z,86.57
2017-09-21T05:32:55.977Z,86.47
2017-09-21T05:33:22.125Z,86.47
2017-09-21T05:33:48.268Z,86.34
2017-09-21T05:34:14.414Z,86.57
2017-09-21T05:34:40.555Z,86.76
2017-09-21T05:35:06.706Z,86.86
2017-09-21T05:35:32.852Z,86.63
2017-09-21T05:35:59.000Z,86.67
2017-09-21T05:36:25.142Z,86.47
2017-09-21T05:36:51.289Z,86.67
2017-09-21T05:37:17.429Z,86.91
2017-09-21T05:37:43.580Z,86.91
2017-09-21T05:38:09.728Z,87.1
2017-09-21T05:38:35.871Z,86.76